Weather at Fingland

Public forecast

Using degrees Celsius for public forecast. Weather courtesy of forecast.io.

Closest aviation weather report (METAR) to Fingland

Closest report is RAF Spadeadam, 27.9 nm (51.6 km) SE.

2024/05/30 21:20 (retrieved 24 minutes ago)

EGOM 302120Z AUTO 03007KT 9999 NCD 09/06 Q1017

Closest aviation forecast (TAF) to Fingland

Closest forecast is Edinburgh Airport, 38.0 nm (70.3 km) N.

2024/05/30 18:00 (retrieved 4 hours ago)

TAF EGPH 301657Z 3018/3118 34004KT 9999 SCT040 BECMG 3113/3116 04010KT